Terminal Aerodrome Forecast
Issued by NWS Wilmington, NC

Home | Current Version | Previous Version | Text Only | Print | Product List | Glossary On
Versions: 1 2 3 4 5 6 7 8 9 10 11 12 13 14 15 16 17 18 19 20
000
FTUS42 KILM 300756 AAA
TAFLBT
TAF AMD
KLBT 300756Z 3008/0106 11002KT 4SM BR VCSH OVC015
      TEMPO 3008/3012 1SM BR OVC002
     FM301300 17006KT P6SM VCSH BKN050
     FM301800 19005KT P6SM FEW250=

USA.gov is the U.S. government's official web portal to all federal, state and local government web resources and services.